Time;durP1;ratioP1;P1;durP2;ratioP2;P2;SDS_P1;SDS_P2;PMS_P1;PMS_P2;Temp;Humidity;BMP_temperature;BMP_pressure;BME280_temperature;BME280_humidity;BME280_pressure;Samples;Min_cycle;Max_cycle;Signal;HPM_P1;HPM_P2
2022/05/04 00:00:06;;;;;;;3.97;2.80;;;;;;;7.87;77.48;95666.20;1764634;81;21512;-67
2022/05/04 00:02:38;;;;;;;4.10;3.00;;;;;;;7.84;77.53;95659.21;1732489;83;21062;-67
2022/05/04 00:05:06;;;;;;;4.40;3.10;;;;;;;7.77;77.55;95664.94;1764475;81;20982;-67
2022/05/04 00:07:33;;;;;;;6.60;3.57;;;;;;;7.77;77.71;95661.00;1732869;83;21528;-67
2022/05/04 00:10:00;;;;;;;3.63;2.70;;;;;;;7.72;77.39;95656.22;1764542;81;20994;-67
2022/05/04 00:12:27;;;;;;;3.43;3.07;;;;;;;7.65;77.21;95670.27;1732789;83;21003;-68
2022/05/04 00:14:53;;;;;;;4.47;3.43;;;;;;;7.49;78.20;95661.61;1764759;81;21045;-68
2022/05/04 00:17:20;;;;;;;4.47;3.37;;;;;;;7.45;79.44;95669.51;1732839;83;21100;-68
2022/05/04 00:19:48;;;;;;;3.23;2.60;;;;;;;7.43;79.20;95676.06;1764790;81;20969;-68
2022/05/04 00:22:19;;;;;;;4.67;2.77;;;;;;;7.39;79.45;95677.43;1732835;83;21541;-67
2022/05/04 00:24:47;;;;;;;4.47;2.53;;;;;;;7.27;80.06;95675.28;1764790;81;20985;-67
2022/05/04 00:27:15;;;;;;;3.40;2.97;;;;;;;7.20;79.25;95675.31;1731883;83;21034;-67
2022/05/04 00:29:46;;;;;;;3.63;2.97;;;;;;;7.11;79.87;95675.79;1756002;81;21073;-67
2022/05/04 00:32:14;;;;;;;5.17;2.97;;;;;;;7.10;79.08;95671.84;1755749;82;21033;-67
2022/05/04 00:34:41;;;;;;;6.13;3.20;;;;;;;7.04;79.30;95678.44;1724622;83;21568;-67
2022/05/04 00:37:08;;;;;;;4.00;3.20;;;;;;;7.07;79.14;95682.36;1756192;82;21046;-67
2022/05/04 00:39:35;;;;;;;3.90;3.03;;;;;;;7.11;79.17;95682.80;1724528;83;21026;-67
2022/05/04 00:42:15;;;;;;;3.90;2.90;;;;;;;7.16;79.18;95683.66;1724887;82;20978;-67
2022/05/04 00:44:44;;;;;;;2.90;2.60;;;;;;;7.17;78.89;95685.38;1724619;83;21520;-67
2022/05/04 00:47:11;;;;;;;3.83;3.17;;;;;;;7.18;79.03;95688.88;1755952;82;21049;-67
2022/05/04 00:49:41;;;;;;;3.27;2.97;;;;;;;7.09;79.22;95696.35;1724554;83;21003;-68
2022/05/04 00:52:11;;;;;;;4.97;3.20;;;;;;;6.94;79.09;95689.41;1724601;83;20969;-67
2022/05/04 00:54:38;;;;;;;3.77;3.20;;;;;;;6.90;79.73;95694.21;1756401;82;20999;-67
2022/05/04 00:57:06;;;;;;;4.53;2.90;;;;;;;6.97;79.96;95694.63;1724704;83;20987;-68
2022/05/04 00:59:33;;;;;;;4.60;2.83;;;;;;;7.03;79.78;95695.05;1756076;82;21041;-67
2022/05/04 01:02:00;;;;;;;4.00;2.60;;;;;;;7.06;79.56;95695.06;1724305;83;21034;-67
2022/05/04 01:04:27;;;;;;;3.53;2.87;;;;;;;6.98;79.09;95697.71;1756173;82;20990;-68
2022/05/04 01:06:54;;;;;;;2.60;2.40;;;;;;;6.88;80.14;95703.86;1724563;83;21019;-67
2022/05/04 01:09:21;;;;;;;3.50;2.80;;;;;;;6.82;79.64;95695.55;1756060;82;20982;-67
2022/05/04 01:11:48;;;;;;;4.17;3.20;;;;;;;6.73;79.62;95696.89;1724639;83;21529;-67
2022/05/04 01:14:16;;;;;;;4.33;3.13;;;;;;;6.65;79.89;95700.84;1755710;82;21041;-67
2022/05/04 01:16:48;;;;;;;3.67;2.80;;;;;;;6.62;79.79;95698.64;1724492;83;21035;-67
2022/05/04 01:19:15;;;;;;;3.27;2.70;;;;;;;6.60;79.99;95699.98;1724518;83;21514;-67
2022/05/04 01:21:42;;;;;;;5.27;2.80;;;;;;;6.59;80.20;95701.28;1756156;82;21081;-67
2022/05/04 01:24:09;;;;;;;3.73;2.70;;;;;;;6.61;80.04;95698.23;1724669;83;20963;-67
2022/05/04 01:26:36;;;;;;;5.20;2.90;;;;;;;6.62;79.83;95703.89;1756027;82;20994;-67
2022/05/04 01:29:04;;;;;;;5.53;3.00;;;;;;;6.65;79.92;95702.16;1723970;83;21556;-67
2022/05/04 01:31:31;;;;;;;2.80;2.40;;;;;;;6.72;79.98;95701.69;1756022;82;20974;-67
2022/05/04 01:33:59;;;;;;;4.13;2.53;;;;;;;6.75;79.65;95699.05;1724594;83;20995;-67
2022/05/04 01:36:26;;;;;;;2.97;2.63;;;;;;;6.66;79.18;95702.58;1755902;82;21018;-68
2022/05/04 01:38:53;;;;;;;3.83;3.40;;;;;;;6.56;79.05;95707.84;1724581;83;21535;-68
2022/05/04 01:44:04;;;;;;;3.10;2.63;;;;;;;6.27;78.99;95703.48;1724371;83;20999;-68
2022/05/04 01:46:31;;;;;;;4.07;3.33;;;;;;;6.06;79.33;95705.22;1724603;83;21526;-67
2022/05/04 01:48:58;;;;;;;4.27;3.20;;;;;;;6.00;80.01;95706.98;1756018;82;20977;-67
2022/05/04 01:51:25;;;;;;;4.73;3.67;;;;;;;6.02;80.22;95701.28;1724690;83;20972;-67
2022/05/04 01:53:52;;;;;;;5.50;3.50;;;;;;;5.97;79.87;95704.34;1755967;81;21009;-67
2022/05/04 01:56:18;;;;;;;4.50;3.27;;;;;;;5.93;79.97;95709.13;1724213;83;20983;-67
2022/05/04 01:58:45;;;;;;;4.30;2.80;;;;;;;5.90;80.20;95703.89;1724198;83;21016;-67
2022/05/04 02:01:13;;;;;;;4.00;3.60;;;;;;;5.85;80.01;95708.67;1756026;82;20990;-67
2022/05/04 02:03:40;;;;;;;6.03;3.73;;;;;;;5.79;79.98;95706.02;1724298;83;21111;-67
2022/05/04 02:06:07;;;;;;;3.83;3.40;;;;;;;5.76;80.51;95702.09;1756303;82;20962;-67
2022/05/04 02:08:35;;;;;;;4.03;3.00;;;;;;;5.79;80.42;95706.02;1724529;83;21019;-67
2022/05/04 02:11:02;;;;;;;4.07;3.10;;;;;;;5.84;80.56;95704.73;1756052;82;21032;-67
2022/05/04 02:13:28;;;;;;;4.00;2.80;;;;;;;5.81;80.48;95705.59;1724316;83;20992;-67
2022/05/04 02:15:55;;;;;;;3.03;2.73;;;;;;;5.79;80.57;95709.08;1756162;81;21061;-68
2022/05/04 02:18:21;;;;;;;4.43;3.20;;;;;;;5.78;80.64;95700.36;1724407;83;21058;-68
2022/05/04 02:20:48;;;;;;;3.77;3.00;;;;;;;5.74;80.71;95701.22;1756324;82;21005;-68
2022/05/04 02:23:15;;;;;;;4.47;2.90;;;;;;;5.75;81.45;95698.19;1724634;83;21068;-67
2022/05/04 02:25:41;;;;;;;5.53;3.37;;;;;;;5.73;81.28;95705.16;1756348;81;21006;-67
2022/05/04 02:28:08;;;;;;;3.20;2.90;;;;;;;5.74;81.59;95705.59;1719752;83;21075;-67
2022/05/04 02:30:35;;;;;;;4.47;3.40;;;;;;;5.76;81.98;95703.41;1743490;82;21548;-67
2022/05/04 02:33:01;;;;;;;3.50;3.10;;;;;;;5.80;81.62;95703.00;1764799;81;21499;-67
2022/05/04 02:38:14;;;;;;;3.27;2.90;;;;;;;5.96;81.83;95706.53;1764717;81;21522;-67
2022/05/04 02:40:40;;;;;;;3.30;2.47;;;;;;;5.96;81.38;95713.95;1733209;83;21078;-67
2022/05/04 02:43:07;;;;;;;3.57;2.40;;;;;;;6.06;81.69;95713.52;1764806;81;21049;-67
2022/05/04 02:45:34;;;;;;;3.50;2.77;;;;;;;6.01;81.08;95713.52;1732448;83;21082;-67
2022/05/04 02:48:01;;;;;;;3.23;2.93;;;;;;;5.93;81.48;95713.05;1764866;81;21008;-67
2022/05/04 02:50:28;;;;;;;3.40;2.67;;;;;;;5.81;80.81;95715.20;1732994;83;21038;-67
2022/05/04 02:52:55;;;;;;;4.17;2.93;;;;;;;5.81;81.32;95714.77;1764644;81;21008;-67
2022/05/04 02:55:21;;;;;;;3.37;2.60;;;;;;;5.82;81.43;95713.02;1733265;83;21069;-67
2022/05/04 02:57:48;;;;;;;3.10;2.80;;;;;;;5.91;81.83;95716.97;1764845;81;21001;-68
2022/05/04 03:00:16;;;;;;;4.87;2.77;;;;;;;5.95;81.62;95716.58;1732373;83;21035;-67
2022/05/04 03:02:43;;;;;;;2.90;2.60;;;;;;;5.95;81.13;95723.13;1764981;81;21514;-67
2022/05/04 03:05:12;;;;;;;5.80;3.17;;;;;;;5.90;81.30;95720.91;1732905;83;21057;-67
2022/05/04 03:07:39;;;;;;;3.93;2.73;;;;;;;5.80;81.09;95726.12;1764870;81;21029;-67
2022/05/04 03:10:08;;;;;;;4.17;2.83;;;;;;;5.85;81.38;95724.83;1732983;83;21058;-67
2022/05/04 03:12:35;;;;;;;3.33;2.63;;;;;;;5.88;81.63;95731.38;1764653;81;21940;-67
2022/05/04 03:15:03;;;;;;;8.30;2.90;;;;;;;5.94;81.51;95723.55;1732549;83;21026;-67
2022/05/04 03:17:30;;;;;;;4.03;2.93;;;;;;;5.97;81.38;95726.60;1764893;81;21471;-67
2022/05/04 03:19:58;;;;;;;6.57;3.37;;;;;;;5.93;81.07;95732.25;1732716;83;21014;-67
2022/05/04 03:22:25;;;;;;;4.50;3.10;;;;;;;5.96;81.31;95731.41;1764805;81;21032;-67
2022/05/04 03:24:52;;;;;;;3.37;2.77;;;;;;;5.99;80.97;95731.41;1733026;83;21010;-67
2022/05/04 03:27:19;;;;;;;3.63;2.87;;;;;;;5.95;80.77;95735.78;1764590;81;21483;-67
2022/05/04 03:29:46;;;;;;;3.20;2.70;;;;;;;5.99;81.20;95735.34;1704373;83;21007;-67
2022/05/04 03:32:13;;;;;;;5.93;3.13;;;;;;;5.96;80.52;95741.89;1701950;84;21043;-67
2022/05/04 03:34:40;;;;;;;4.90;3.30;;;;;;;5.82;80.64;95740.50;1702124;84;20995;-67
2022/05/04 03:37:07;;;;;;;3.47;2.93;;;;;;;5.81;81.06;95740.95;1709900;84;21560;-67
2022/05/04 03:39:33;;;;;;;12.23;3.50;;;;;;;5.73;81.13;95740.06;1710375;84;21074;-67
2022/05/04 03:42:00;;;;;;;5.13;3.80;;;;;;;5.73;81.08;95743.13;1709815;84;21034;-67
2022/05/04 03:44:27;;;;;;;3.47;2.93;;;;;;;5.75;81.43;95742.26;1710007;84;21492;-67
2022/05/04 03:46:53;;;;;;;3.23;2.87;;;;;;;5.78;81.24;95744.88;1710311;84;20995;-67
2022/05/04 03:49:22;;;;;;;3.30;2.70;;;;;;;5.71;81.44;95743.11;1710041;84;20991;-67
2022/05/04 03:51:50;;;;;;;5.80;3.33;;;;;;;5.68;82.22;95745.72;1710037;84;21481;-67
2022/05/04 03:54:17;;;;;;;4.47;3.47;;;;;;;5.71;82.42;95752.27;1710035;84;20963;-67
2022/05/04 03:56:44;;;;;;;5.80;3.37;;;;;;;5.74;82.73;95753.58;1710163;84;21086;-67
2022/05/04 03:59:11;;;;;;;5.50;3.47;;;;;;;5.80;82.50;95750.99;1710007;84;21015;-66
2022/05/04 04:01:38;;;;;;;9.03;6.27;;;;;;;5.86;83.07;95744.89;1709822;84;21061;-66
2022/05/04 04:04:05;;;;;;;4.40;3.70;;;;;;;5.89;82.90;95746.20;1709966;84;21003;-67
2022/05/04 04:06:33;;;;;;;9.70;4.40;;;;;;;5.92;83.16;95749.25;1709992;84;21114;-66
2022/05/04 04:09:00;;;;;;;26.37;12.50;;;;;;;5.94;83.17;95742.31;1710027;84;21002;-67
2022/05/04 04:11:27;;;;;;;28.00;13.17;;;;;;;5.95;83.54;95750.63;1709775;84;21070;-67
2022/05/04 04:13:54;;;;;;;6.73;4.70;;;;;;;6.00;84.03;95748.45;1709899;84;21026;-67
2022/05/04 04:16:20;;;;;;;10.80;7.37;;;;;;;6.03;83.24;95745.83;1709959;84;21496;-67
2022/05/04 04:18:47;;;;;;;12.53;7.90;;;;;;;6.06;84.86;95747.58;1709835;84;21117;-67
2022/05/04 04:23:59;;;;;;;9.17;7.33;;;;;;;6.25;84.55;95753.28;1709963;84;21429;-67
2022/05/04 04:26:26;;;;;;;9.83;6.77;;;;;;;6.41;84.64;95758.09;1710194;84;21022;-67
2022/05/04 04:28:53;;;;;;;12.77;6.70;;;;;;;6.56;84.56;95755.03;1734042;81;21022;-67
2022/05/04 04:31:20;;;;;;;11.43;8.20;;;;;;;6.72;84.34;95759.38;1764611;81;20970;-67
2022/05/04 04:33:46;;;;;;;33.93;22.13;;;;;;;6.90;83.99;95755.84;1764490;81;21492;-67
2022/05/04 04:36:13;;;;;;;31.77;24.27;;;;;;;7.02;83.38;95749.27;1764643;81;21088;-66
2022/05/04 04:38:39;;;;;;;13.40;8.87;;;;;;;7.14;82.93;95755.80;1764599;81;20982;-66
2022/05/04 04:41:06;;;;;;;8.90;6.50;;;;;;;7.29;83.27;95746.15;1764612;81;21002;-66
2022/05/04 04:43:32;;;;;;;9.50;6.87;;;;;;;7.51;83.15;95748.23;1764585;81;21012;-66
2022/05/04 04:45:59;;;;;;;14.57;8.00;;;;;;;7.68;82.99;95754.73;1764253;81;21057;-65
2022/05/04 04:48:25;;;;;;;12.77;6.97;;;;;;;7.87;82.76;95747.64;1764425;81;21014;-63
2022/05/04 04:50:52;;;;;;;10.20;6.50;;;;;;;8.06;82.26;95743.13;1764625;81;21017;-66
2022/05/04 04:53:19;;;;;;;15.00;7.50;;;;;;;8.23;81.71;95746.07;1764666;81;20994;-66
2022/05/04 04:55:46;;;;;;;13.17;6.47;;;;;;;8.42;81.50;95742.91;1764746;81;21002;-66
2022/05/04 04:58:14;;;;;;;9.53;6.70;;;;;;;8.52;80.73;95742.84;1764531;81;21088;-70
2022/05/04 05:00:42;;;;;;;10.00;6.63;;;;;;;8.66;80.36;95743.58;1764282;81;21104;-66
2022/05/04 05:03:09;;;;;;;9.47;6.63;;;;;;;8.76;79.93;95737.35;1764140;81;21088;-69
2022/05/04 05:05:41;;;;;;;8.87;6.63;;;;;;;8.86;79.83;95740.32;1763970;81;21028;-65
2022/05/04 05:08:09;;;;;;;8.43;6.13;;;;;;;8.93;78.69;95735.02;1763859;81;20974;-66
2022/05/04 05:10:37;;;;;;;10.10;6.13;;;;;;;8.99;78.92;95738.44;1763093;81;20954;-66
2022/05/04 05:13:04;;;;;;;9.10;6.77;;;;;;;9.09;79.06;95733.50;1764110;81;21541;-67
2022/05/04 05:18:19;;;;;;;8.93;6.57;;;;;;;9.24;78.65;95734.23;1764073;81;21547;-65
2022/05/04 05:20:45;;;;;;;11.67;6.37;;;;;;;9.22;78.12;95730.33;1763363;81;21513;-67
2022/05/04 05:23:12;;;;;;;9.83;6.60;;;;;;;9.23;78.24;95737.32;1763315;81;21080;-68
2022/05/04 05:25:38;;;;;;;11.13;7.20;;;;;;;9.30;78.43;95731.55;1763367;81;21899;-64
2022/05/04 05:28:05;;;;;;;11.53;6.90;;;;;;;9.41;77.94;95734.92;1763807;81;21009;-68
2022/05/04 05:30:33;;;;;;;9.93;6.80;;;;;;;9.55;77.95;95730.82;1764099;81;21577;-66
2022/05/04 05:32:59;;;;;;;7.67;6.03;;;;;;;9.68;77.84;95734.16;1764365;81;21065;-64
2022/05/04 05:35:26;;;;;;;10.73;5.27;;;;;;;9.85;77.87;95735.23;1764124;81;21018;-65
2022/05/04 05:37:53;;;;;;;10.50;6.50;;;;;;;10.01;77.58;95734.16;1764274;81;21088;-68
2022/05/04 05:40:19;;;;;;;11.17;6.10;;;;;;;10.16;76.59;95737.88;1764091;81;21004;-65
2022/05/04 05:42:46;;;;;;;14.50;5.70;;;;;;;10.30;75.79;95735.05;1764444;81;21431;-66
2022/05/04 05:45:13;;;;;;;8.73;6.47;;;;;;;10.50;76.18;95741.34;1764820;81;20978;-66
2022/05/04 05:47:40;;;;;;;11.20;6.60;;;;;;;10.70;76.32;95732.23;1764655;81;20973;-69
2022/05/04 05:50:11;;;;;;;10.87;6.73;;;;;;;10.92;75.95;95731.42;1764836;81;21510;-64
2022/05/04 05:52:37;;;;;;;11.03;6.33;;;;;;;11.12;75.79;95721.37;1764846;81;21005;-65
2022/05/04 05:55:05;;;;;;;8.70;5.17;;;;;;;11.34;75.43;95730.19;1764852;81;21069;-64
2022/05/04 05:57:32;;;;;;;7.27;5.03;;;;;;;11.44;73.17;95727.78;1764845;81;21443;-68
2022/05/04 05:59:59;;;;;;;10.48;4.97;;;;;;;11.48;72.49;95736.09;1764619;81;21057;-65
2022/05/04 06:02:29;;;;;;;10.13;4.37;;;;;;;11.51;73.05;95732.51;1764698;81;20970;-64
2022/05/04 06:04:56;;;;;;;6.42;4.60;;;;;;;11.52;72.77;95736.45;1764582;81;21018;-64
2022/05/04 06:07:23;;;;;;;5.62;3.90;;;;;;;11.53;72.58;95728.94;1764999;81;20977;-66
2022/05/04 06:09:51;;;;;;;7.12;4.67;;;;;;;11.58;72.39;95736.77;1764602;81;21499;-64
2022/05/04 06:12:17;;;;;;;5.45;4.28;;;;;;;11.64;71.95;95736.64;1764824;81;20994;-64
2022/05/04 06:14:44;;;;;;;4.97;4.47;;;;;;;11.69;71.35;95736.98;1763055;81;21104;-64
2022/05/04 06:17:12;;;;;;;8.30;4.37;;;;;;;11.80;70.32;95731.92;1763369;81;21017;-65
2022/05/04 06:19:38;;;;;;;9.58;4.97;;;;;;;11.91;68.76;95737.41;1764056;81;21037;-65
2022/05/04 06:22:06;;;;;;;8.53;4.72;;;;;;;12.07;69.68;95736.65;1763894;81;21092;-65
2022/05/04 06:24:32;;;;;;;8.38;5.15;;;;;;;12.25;68.19;95738.01;1764477;81;21002;-65
2022/05/04 06:26:59;;;;;;;6.28;4.17;;;;;;;12.41;68.41;95736.33;1764707;81;21076;-65
2022/05/04 06:34:06;;;;;;;7.10;4.67;;;;;;;12.54;67.67;95730.69;1764437;81;21001;-64
2022/05/04 06:34:40;;;;;;;7.80;4.70;;;;;;;12.85;68.41;95736.58;1764543;81;21058;-64
2022/05/04 06:37:07;;;;;;;8.53;4.72;;;;;;;13.03;68.15;95734.34;1764169;81;21041;-64
2022/05/04 06:39:33;;;;;;;6.45;4.17;;;;;;;13.16;66.90;95731.81;1764328;81;21014;-65
2022/05/04 06:42:00;;;;;;;5.33;4.25;;;;;;;13.32;67.21;95731.83;1764295;81;21082;-64
2022/05/04 06:44:26;;;;;;;4.12;3.65;;;;;;;13.46;65.92;95731.47;1763545;81;21175;-65
2022/05/04 06:46:53;;;;;;;5.90;4.05;;;;;;;13.60;65.01;95729.74;1763741;81;21024;-66
2022/05/04 06:49:20;;;;;;;3.70;3.40;;;;;;;13.75;64.83;95731.09;1765644;81;21007;-66
2022/05/04 06:51:50;;;;;;;3.70;3.30;;;;;;;13.85;63.45;95732.09;1764698;81;21128;-65
2022/05/04 06:54:17;;;;;;;5.87;3.50;;;;;;;13.96;62.17;95737.11;1764029;81;21530;-65
2022/05/04 06:56:44;;;;;;;4.22;3.55;;;;;;;14.00;60.49;95733.44;1764695;81;21000;-66
2022/05/04 06:59:10;;;;;;;4.00;3.60;;;;;;;14.07;60.26;95736.32;1762851;81;21192;-66
2022/05/04 07:01:37;;;;;;;3.47;3.15;;;;;;;14.17;60.34;95729.42;1762761;81;21071;-65
2022/05/04 07:04:04;;;;;;;6.70;3.30;;;;;;;14.23;59.55;95731.41;1763314;81;21024;-64
2022/05/04 07:06:30;;;;;;;5.00;3.52;;;;;;;14.31;60.02;95744.44;1764090;81;21451;-65
2022/05/04 07:08:57;;;;;;;4.87;4.20;;;;;;;14.39;60.56;95739.79;1763764;81;21099;-66
2022/05/04 07:11:24;;;;;;;3.90;3.50;;;;;;;14.48;60.46;95738.62;1763862;81;21525;-65
2022/05/04 07:13:50;;;;;;;4.67;3.45;;;;;;;14.59;60.63;95745.83;1765091;81;21012;-65
2022/05/04 07:16:17;;;;;;;4.92;3.45;;;;;;;14.64;60.35;95741.24;1764878;81;21023;-66
2022/05/04 07:18:43;;;;;;;4.90;3.70;;;;;;;14.74;59.48;95743.15;1764067;81;21118;-67
2022/05/04 07:21:10;;;;;;;3.83;3.37;;;;;;;14.88;59.46;95742.21;1764072;81;21087;-65
2022/05/04 07:23:37;;;;;;;4.20;3.70;;;;;;;15.03;57.30;95745.29;1763554;81;21043;-67
2022/05/04 07:26:03;;;;;;;5.80;3.50;;;;;;;15.14;56.58;95737.38;1766793;81;21543;-66
2022/05/04 07:28:30;;;;;;;6.08;3.22;;;;;;;15.30;56.94;95740.36;1772583;81;21003;-66
2022/05/04 07:30:57;;;;;;;4.75;3.30;;;;;;;15.51;56.98;95743.18;1780251;80;21038;-65
2022/05/04 07:33:24;;;;;;;4.33;3.15;;;;;;;15.75;56.70;95742.81;1778994;80;20975;-68
2022/05/04 07:35:51;;;;;;;4.10;3.10;;;;;;;15.97;54.50;95736.20;1745306;81;20950;-65
2022/05/04 07:38:18;;;;;;;5.45;3.05;;;;;;;16.17;54.25;95738.98;1768618;81;21138;-66
2022/05/04 07:43:31;;;;;;;4.30;3.00;;;;;;;16.56;53.32;95739.70;1773258;81;21094;-62
2022/05/04 07:45:57;;;;;;;5.25;3.17;;;;;;;16.72;50.06;95731.95;1742684;82;21001;-65
2022/05/04 07:48:24;;;;;;;5.12;3.50;;;;;;;16.72;50.06;95731.95;1742130;82;21011;-65
2022/05/04 07:50:51;;;;;;;5.83;3.47;;;;;;;16.74;51.20;95735.90;1773266;81;21610;-66
2022/05/04 07:53:17;;;;;;;5.72;3.02;;;;;;;16.84;51.13;95738.63;1743169;82;21477;-66
2022/05/04 07:55:44;;;;;;;5.17;3.10;;;;;;;16.84;49.74;95731.96;1773526;81;21132;-68
2022/05/04 07:58:11;;;;;;;3.83;3.40;;;;;;;16.76;50.16;95736.23;1743438;82;20979;-65
2022/05/04 08:06:07;;;;;;;5.78;3.62;;;;;;;17.03;46.70;95733.38;1740696;82;21061;-64
2022/05/04 08:08:34;;;;;;;5.25;3.40;;;;;;;17.16;48.56;95731.96;1772072;81;21153;-65
2022/05/04 08:11:03;;;;;;;4.95;3.20;;;;;;;17.24;47.30;95736.49;1743149;82;21504;-65
2022/05/04 08:13:31;;;;;;;3.10;2.87;;;;;;;17.33;47.29;95739.22;1773851;81;20987;-64
2022/05/04 08:15:58;;;;;;;4.30;2.98;;;;;;;17.41;46.82;95738.45;1743404;82;21109;-67
2022/05/04 08:18:26;;;;;;;4.22;3.25;;;;;;;17.55;46.88;95743.17;1772965;81;20998;-66
2022/05/04 08:20:53;;;;;;;8.35;3.30;;;;;;;17.67;46.46;95742.64;1742537;82;21014;-66
2022/05/04 08:23:20;;;;;;;3.45;3.08;;;;;;;17.76;45.84;95747.16;1772453;81;20998;-66
2022/05/04 08:25:47;;;;;;;4.35;2.90;;;;;;;17.84;46.55;95741.92;1742733;82;21549;-67
2022/05/04 08:28:14;;;;;;;3.85;3.12;;;;;;;17.90;46.75;95746.98;1742851;82;21567;-66
2022/05/04 08:30:40;;;;;;;5.67;3.55;;;;;;;17.98;45.88;95748.44;1772085;78;21022;-68
2022/05/04 08:33:07;;;;;;;4.92;3.35;;;;;;;17.92;45.50;95750.45;1821609;79;21054;-68
2022/05/04 08:35:33;;;;;;;3.77;3.30;;;;;;;17.92;46.18;95749.11;1752183;82;21538;-68
2022/05/04 08:38:00;;;;;;;3.58;2.90;;;;;;;18.02;46.69;95752.72;1775297;81;21022;-68
2022/05/04 08:40:29;;;;;;;5.28;3.17;;;;;;;18.02;46.38;95754.05;1775206;81;21110;-67
2022/05/04 08:42:57;;;;;;;3.77;3.35;;;;;;;17.88;46.71;95755.52;1769741;81;21031;-67
2022/05/04 08:45:24;;;;;;;4.92;3.42;;;;;;;17.98;46.97;95747.97;1775350;81;21120;-67
2022/05/04 08:47:51;;;;;;;3.47;2.98;;;;;;;18.11;47.44;95754.95;1774781;81;21510;-66
2022/05/04 08:50:18;;;;;;;5.78;3.25;;;;;;;18.15;45.98;95747.20;1774271;81;21073;-69
2022/05/04 08:52:56;;;;;;;4.55;3.50;;;;;;;18.35;45.83;95744.95;1775671;81;20994;-67
2022/05/04 08:55:24;;;;;;;4.25;3.75;;;;;;;18.69;45.22;95740.19;1775119;81;21527;-68
2022/05/04 08:57:54;;;;;;;7.47;3.62;;;;;;;18.92;44.90;95752.46;1775068;81;20963;-63
2022/05/04 09:00:21;;;;;;;5.95;4.40;;;;;;;19.23;45.94;95743.80;1775715;81;21488;-67
2022/05/04 09:02:48;;;;;;;4.28;3.83;;;;;;;19.43;45.21;95738.78;1775678;81;21037;-67
2022/05/04 09:05:24;;;;;;;4.00;3.60;;;;;;;19.45;43.80;95740.02;1775695;81;21014;-76
2022/05/04 09:07:54;;;;;;;5.85;3.52;;;;;;;19.56;45.37;95740.35;1762933;81;21488;-66
2022/05/04 09:10:34;;;;;;;4.03;3.52;;;;;;;19.55;45.58;95745.30;1746860;82;21027;-67
2022/05/04 09:13:03;;;;;;;6.15;3.60;;;;;;;19.54;45.43;95744.05;1747437;82;21532;-67
2022/05/04 09:15:33;;;;;;;6.28;3.80;;;;;;;19.59;44.61;95746.02;1762086;81;21556;-67
2022/05/04 09:18:07;;;;;;;4.15;3.65;;;;;;;19.52;44.41;95746.80;1761792;81;21042;-67
2022/05/04 09:20:49;;;;;;;4.37;3.87;;;;;;;19.66;45.39;95743.42;1761513;81;21077;-67
2022/05/04 09:23:29;;;;;;;5.75;4.40;;;;;;;19.76;46.29;95747.37;1746990;82;21086;-67
2022/05/04 09:25:59;;;;;;;7.95;3.83;;;;;;;19.93;47.54;95750.48;1746278;82;21046;-67
2022/05/04 09:28:28;;;;;;;6.15;4.20;;;;;;;20.06;45.56;95746.70;1761594;81;21061;-67
2022/05/04 09:30:58;;;;;;;4.95;3.65;;;;;;;20.16;47.26;95753.30;1741720;82;21481;-67
2022/05/04 09:33:28;;;;;;;3.98;3.67;;;;;;;20.28;44.08;95748.59;1739183;82;21711;-67
2022/05/04 09:35:56;;;;;;;4.87;3.95;;;;;;;20.25;44.30;95739.39;1756577;82;20990;-67
2022/05/04 09:46:39;;;;;;;6.75;4.00;;;;;;;19.95;44.03;95747.26;1756086;82;21041;-67
2022/05/04 09:49:18;;;;;;;5.25;3.70;;;;;;;19.80;43.56;95742.23;1756455;82;21098;-67
2022/05/04 09:51:49;;;;;;;5.00;4.05;;;;;;;19.80;44.96;95737.36;1756580;82;20995;-66
2022/05/04 09:54:27;;;;;;;5.17;3.70;;;;;;;19.91;44.80;95735.00;1756695;82;21469;-67
2022/05/04 09:56:57;;;;;;;5.20;3.65;;;;;;;19.96;44.71;95737.41;1756610;82;21532;-67
2022/05/04 09:59:29;;;;;;;4.17;3.50;;;;;;;20.14;44.33;95728.41;1739476;82;21050;-67
2022/05/04 10:01:59;;;;;;;8.18;5.05;;;;;;;20.36;43.26;95726.77;1739872;82;21047;-67
2022/05/04 10:04:27;;;;;;;19.27;13.03;;;;;;;20.48;43.09;95718.50;1756553;82;21049;-67
2022/05/04 10:06:55;;;;;;;8.88;4.95;;;;;;;20.52;43.26;95714.22;1739679;82;21011;-67
2022/05/04 10:09:23;;;;;;;4.62;4.22;;;;;;;20.74;47.97;95705.02;1755733;82;21589;-66
2022/05/04 10:11:59;;;;;;;10.40;6.25;;;;;;;20.93;44.78;95700.30;1761967;81;21113;-66
2022/05/04 10:14:30;;;;;;;5.53;3.92;;;;;;;21.08;43.65;95706.60;1769226;81;21014;-67
2022/05/04 10:17:18;;;;;;;5.85;3.83;;;;;;;21.16;40.29;95710.17;1769318;81;21023;-66
2022/05/04 10:20:11;;;;;;;4.65;3.80;;;;;;;21.30;40.16;95706.70;1769178;81;21168;-67
2022/05/04 10:22:45;;;;;;;5.12;4.53;;;;;;;21.53;37.99;95709.38;1761775;81;21007;-67
2022/05/04 10:25:14;;;;;;;5.62;3.83;;;;;;;21.55;40.76;95698.94;1767500;81;21058;-67
2022/05/04 10:27:43;;;;;;;6.20;3.87;;;;;;;21.08;40.15;95709.77;1770246;81;21022;-67
2022/05/04 10:33:06;;;;;;;8.68;4.53;;;;;;;19.95;46.16;95728.99;1801184;79;21014;-67
2022/05/04 10:35:41;;;;;;;5.92;4.10;;;;;;;19.07;48.64;95732.13;1800809;79;21094;-67
2022/05/04 10:38:30;;;;;;;7.55;4.12;;;;;;;18.42;48.89;95734.81;1760913;81;21034;-67
2022/05/04 10:41:06;;;;;;;11.93;5.03;;;;;;;17.95;50.30;95738.77;1760507;81;20992;-66
2022/05/04 10:43:45;;;;;;;6.75;4.17;;;;;;;17.60;51.63;95739.83;1760760;81;21023;-66
2022/05/04 10:46:20;;;;;;;5.60;3.72;;;;;;;17.32;52.68;95744.16;1760816;81;21637;-66
2022/05/04 10:49:02;;;;;;;4.83;4.40;;;;;;;16.92;51.71;95745.83;1760694;81;21046;-66
2022/05/04 10:51:36;;;;;;;6.33;4.00;;;;;;;16.66;56.79;95759.72;1760965;81;21111;-66
2022/05/04 10:54:17;;;;;;;7.37;4.60;;;;;;;16.56;57.52;95750.83;1759556;81;21082;-67
2022/05/04 10:56:48;;;;;;;9.73;4.83;;;;;;;16.46;55.86;95753.45;1760798;81;21528;-67
2022/05/04 10:59:34;;;;;;;8.20;4.12;;;;;;;16.29;57.04;95749.63;1760734;81;21106;-67
2022/05/04 11:02:04;;;;;;;6.90;4.30;;;;;;;16.16;58.70;95754.56;1760879;81;21023;-67
2022/05/04 11:04:33;;;;;;;6.22;4.70;;;;;;;16.20;58.78;95752.63;1760652;81;20998;-67
2022/05/04 11:07:07;;;;;;;9.08;4.78;;;;;;;16.12;58.49;95758.25;1760783;81;20991;-67
2022/05/04 11:09:42;;;;;;;6.33;5.22;;;;;;;16.29;58.86;95751.44;1760645;81;20987;-67
2022/05/04 11:12:11;;;;;;;10.58;5.00;;;;;;;16.54;59.99;95753.54;1760805;81;20979;-66
2022/05/04 11:14:39;;;;;;;6.28;4.95;;;;;;;17.05;61.11;95744.86;1760670;81;21034;-66
2022/05/04 11:17:13;;;;;;;8.83;4.25;;;;;;;17.43;56.84;95735.69;1760228;81;21030;-66
2022/05/04 11:19:47;;;;;;;5.47;4.30;;;;;;;17.71;55.72;95737.58;1760571;81;20991;-66
2022/05/04 11:22:16;;;;;;;5.25;4.42;;;;;;;17.79;55.48;95727.89;1760904;81;21015;-66
2022/05/04 11:24:43;;;;;;;6.20;3.67;;;;;;;17.97;55.04;95730.23;1760599;81;21082;-66
2022/05/04 11:27:11;;;;;;;6.22;4.08;;;;;;;18.08;53.16;95723.91;1760766;81;21054;-66
2022/05/04 11:29:38;;;;;;;4.83;4.28;;;;;;;18.28;51.89;95718.13;1760623;81;20991;-67
2022/05/04 11:32:06;;;;;;;6.05;4.08;;;;;;;18.51;52.27;95714.36;1760333;81;21058;-67
2022/05/04 11:34:36;;;;;;;5.58;4.28;;;;;;;18.70;49.30;95715.20;1760620;81;21024;-67
2022/05/04 11:37:08;;;;;;;7.17;4.30;;;;;;;18.74;50.14;95720.78;1760700;81;21018;-67
2022/05/04 11:39:37;;;;;;;5.12;4.08;;;;;;;18.79;50.59;95722.80;1760533;81;21508;-67
2022/05/04 11:42:09;;;;;;;5.60;4.37;;;;;;;18.76;46.51;95723.42;1760802;81;21476;-67
2022/05/04 11:44:41;;;;;;;6.80;4.42;;;;;;;18.81;48.90;95723.59;1731863;81;21014;-67
2022/05/04 11:47:08;;;;;;;8.83;4.92;;;;;;;19.49;49.77;95719.34;1731197;81;21010;-67
2022/05/04 11:49:36;;;;;;;6.62;3.98;;;;;;;20.35;47.38;95721.48;1760816;81;21034;-67
2022/05/04 11:52:04;;;;;;;5.50;3.75;;;;;;;20.85;41.59;95712.44;1760733;81;21029;-67
2022/05/04 11:54:33;;;;;;;7.75;3.98;;;;;;;20.70;41.21;95716.38;1760683;81;20998;-67
2022/05/04 11:57:00;;;;;;;4.40;4.00;;;;;;;20.31;39.91;95720.80;1760537;81;21062;-67
2022/05/04 11:59:31;;;;;;;3.52;3.22;;;;;;;20.10;42.56;95727.69;1760327;81;21155;-67
2022/05/04 12:02:00;;;;;;;5.08;3.60;;;;;;;20.06;40.76;95730.64;1760625;81;21067;-67
2022/05/04 12:04:27;;;;;;;4.62;3.62;;;;;;;20.05;39.40;95729.75;1760877;81;20975;-67
2022/05/04 12:06:56;;;;;;;3.87;3.33;;;;;;;20.37;40.63;95731.64;1760238;81;21058;-67
2022/05/04 12:09:23;;;;;;;7.00;4.08;;;;;;;20.89;40.67;95716.20;1760769;81;21003;-67
2022/05/04 12:11:50;;;;;;;5.42;3.62;;;;;;;21.50;38.23;95715.80;1731385;81;20964;-67
2022/05/04 12:14:17;;;;;;;4.87;3.40;;;;;;;22.10;36.66;95715.30;1730904;81;20986;-67